Terminal Aerodrome Forecast
Issued by NWS

Home | Current Version | Previous Version | Text Only | Print | Product List | Glossary On
Versions: 1 2 3 4 5 6 7 8 9 10 11 12 13 14 15 16 17 18 19 20 21 22 23 24 25
000
FTUS46 KLOX 050800 AAB
TAFOXR
TAF AMD
KOXR 050812Z 0508/0606 VRB03KT P6SM SCT015
      TEMPO 0508/0509 BKN015
     FM051000 VRB03KT P6SM BKN020
     FM051400 VRB03KT P6SM SCT012 OVC025
     FM051900 25010KT P6SM BKN030
     FM052200 26012KT P6SM BKN035
     FM060300 29005KT P6SM SCT025=

USA.gov is the U.S. government's official web portal to all federal, state and local government web resources and services.